Webster, New York
Current Conditions -  °F | °C
As of 3:54 AM on Monday 24 Nov 2014 (Local Time) from KROC Reporting Station
Overcast Overcast  
Wind Chill: 56°   Ceiling: 5000
Heat Index: 56°   Visibility: 10mi
Dew Point: 50°   Wind: 12mph
Humidity: 80%   Direction: 180°S
Pressure: 29.41"   Gusts: 24mph
Location:  43.22°N, 77.43°W
Report Text: KROC 240854Z 18010G21KT 10SM FEW030 OVC050 13/10 A2941 RMK AO2 RAE32 SLP963 P0002 60006 T01330100 56061
Loading
Personal Weather Stations






























Interactive Weather Map New forecast layout! Learn more

10-Day Weather Forecast

Advertisements
Track Severe Weather on mobile